sensor_id;sensor_type;location;lat;lon;timestamp;P1;durP1;ratioP1;P2;durP2;ratioP2
60016;SDS011;45869;52.698;6.210;2022-10-12T00:01:28;12.40;;;8.13;;
60016;SDS011;45869;52.698;6.210;2022-10-12T00:03:54;13.40;;;8.20;;
60016;SDS011;45869;52.698;6.210;2022-10-12T00:06:21;13.65;;;8.30;;
60016;SDS011;45869;52.698;6.210;2022-10-12T00:08:47;12.73;;;8.20;;
60016;SDS011;45869;52.698;6.210;2022-10-12T00:11:15;10.98;;;7.03;;
60016;SDS011;45869;52.698;6.210;2022-10-12T00:13:41;10.27;;;7.20;;
60016;SDS011;45869;52.698;6.210;2022-10-12T00:16:08;9.73;;;7.05;;
60016;SDS011;45869;52.698;6.210;2022-10-12T00:18:35;14.85;;;8.25;;
60016;SDS011;45869;52.698;6.210;2022-10-12T00:21:05;10.88;;;7.63;;
60016;SDS011;45869;52.698;6.210;2022-10-12T00:23:31;10.98;;;7.20;;
60016;SDS011;45869;52.698;6.210;2022-10-12T00:26:02;10.00;;;7.15;;
60016;SDS011;45869;52.698;6.210;2022-10-12T00:28:29;12.00;;;7.88;;
60016;SDS011;45869;52.698;6.210;2022-10-12T00:30:55;9.80;;;6.90;;
60016;SDS011;45869;52.698;6.210;2022-10-12T00:33:21;13.07;;;7.47;;
60016;SDS011;45869;52.698;6.210;2022-10-12T00:35:47;11.13;;;6.88;;
60016;SDS011;45869;52.698;6.210;2022-10-12T00:38:18;10.70;;;7.00;;
60016;SDS011;45869;52.698;6.210;2022-10-12T00:40:44;11.73;;;7.97;;
60016;SDS011;45869;52.698;6.210;2022-10-12T00:43:24;9.82;;;7.10;;
60016;SDS011;45869;52.698;6.210;2022-10-12T00:45:50;9.65;;;7.05;;
60016;SDS011;45869;52.698;6.210;2022-10-12T00:48:16;14.10;;;8.02;;
60016;SDS011;45869;52.698;6.210;2022-10-12T00:50:42;11.48;;;7.07;;
60016;SDS011;45869;52.698;6.210;2022-10-12T00:53:09;10.35;;;6.45;;
60016;SDS011;45869;52.698;6.210;2022-10-12T00:55:36;9.63;;;6.70;;
60016;SDS011;45869;52.698;6.210;2022-10-12T00:58:09;10.70;;;6.90;;
60016;SDS011;45869;52.698;6.210;2022-10-12T01:00:35;10.65;;;7.30;;
60016;SDS011;45869;52.698;6.210;2022-10-12T01:03:02;13.50;;;7.22;;
60016;SDS011;45869;52.698;6.210;2022-10-12T01:05:29;9.18;;;6.63;;
60016;SDS011;45869;52.698;6.210;2022-10-12T01:07:58;10.40;;;6.65;;
60016;SDS011;45869;52.698;6.210;2022-10-12T01:10:24;11.07;;;6.80;;
60016;SDS011;45869;52.698;6.210;2022-10-12T01:12:50;9.85;;;6.40;;
60016;SDS011;45869;52.698;6.210;2022-10-12T01:15:17;13.57;;;7.80;;
60016;SDS011;45869;52.698;6.210;2022-10-12T01:17:59;11.02;;;6.80;;
60016;SDS011;45869;52.698;6.210;2022-10-12T01:28:31;10.70;;;5.80;;
60016;SDS011;45869;52.698;6.210;2022-10-12T01:34:20;10.05;;;5.55;;
60016;SDS011;45869;52.698;6.210;2022-10-12T01:36:42;10.77;;;5.70;;
60016;SDS011;45869;52.698;6.210;2022-10-12T01:44:34;10.20;;;6.70;;
60016;SDS011;45869;52.698;6.210;2022-10-12T01:47:00;8.80;;;5.78;;
60016;SDS011;45869;52.698;6.210;2022-10-12T01:49:27;9.05;;;5.90;;
60016;SDS011;45869;52.698;6.210;2022-10-12T01:51:59;8.45;;;6.30;;
60016;SDS011;45869;52.698;6.210;2022-10-12T01:54:36;9.77;;;5.68;;
60016;SDS011;45869;52.698;6.210;2022-10-12T01:57:10;9.15;;;5.80;;
60016;SDS011;45869;52.698;6.210;2022-10-12T02:04:56;8.10;;;5.53;;
60016;SDS011;45869;52.698;6.210;2022-10-12T02:07:38;8.38;;;5.28;;
60016;SDS011;45869;52.698;6.210;2022-10-12T02:10:06;7.10;;;4.90;;
60016;SDS011;45869;52.698;6.210;2022-10-12T02:12:36;7.55;;;4.55;;
60016;SDS011;45869;52.698;6.210;2022-10-12T02:15:05;7.07;;;4.55;;
60016;SDS011;45869;52.698;6.210;2022-10-12T02:17:32;7.88;;;4.68;;
60016;SDS011;45869;52.698;6.210;2022-10-12T02:19:59;6.88;;;4.45;;
60016;SDS011;45869;52.698;6.210;2022-10-12T02:22:27;7.60;;;4.70;;
60016;SDS011;45869;52.698;6.210;2022-10-12T02:24:58;7.20;;;5.25;;
60016;SDS011;45869;52.698;6.210;2022-10-12T02:27:25;8.38;;;4.88;;
60016;SDS011;45869;52.698;6.210;2022-10-12T02:29:51;7.15;;;4.47;;
60016;SDS011;45869;52.698;6.210;2022-10-12T02:32:27;7.72;;;4.55;;
60016;SDS011;45869;52.698;6.210;2022-10-12T02:34:56;6.97;;;5.05;;
60016;SDS011;45869;52.698;6.210;2022-10-12T02:37:47;7.55;;;4.75;;
60016;SDS011;45869;52.698;6.210;2022-10-12T02:42:45;7.97;;;4.20;;
60016;SDS011;45869;52.698;6.210;2022-10-12T02:45:17;7.78;;;4.80;;
60016;SDS011;45869;52.698;6.210;2022-10-12T02:47:44;8.10;;;5.22;;
60016;SDS011;45869;52.698;6.210;2022-10-12T02:50:12;8.07;;;4.72;;
60016;SDS011;45869;52.698;6.210;2022-10-12T02:52:39;8.25;;;5.07;;
60016;SDS011;45869;52.698;6.210;2022-10-12T02:55:05;8.30;;;4.95;;
60016;SDS011;45869;52.698;6.210;2022-10-12T02:57:31;9.95;;;4.82;;
60016;SDS011;45869;52.698;6.210;2022-10-12T02:59:57;9.57;;;5.43;;
60016;SDS011;45869;52.698;6.210;2022-10-12T03:02:23;9.00;;;5.70;;
60016;SDS011;45869;52.698;6.210;2022-10-12T03:04:52;11.07;;;5.95;;
60016;SDS011;45869;52.698;6.210;2022-10-12T03:07:18;12.05;;;5.97;;
60016;SDS011;45869;52.698;6.210;2022-10-12T03:09:44;11.35;;;5.05;;
60016;SDS011;45869;52.698;6.210;2022-10-12T03:12:10;15.07;;;6.53;;
60016;SDS011;45869;52.698;6.210;2022-10-12T03:14:36;12.45;;;5.60;;
60016;SDS011;45869;52.698;6.210;2022-10-12T03:17:02;9.15;;;4.35;;
60016;SDS011;45869;52.698;6.210;2022-10-12T03:19:29;9.80;;;5.30;;
60016;SDS011;45869;52.698;6.210;2022-10-12T03:21:55;11.10;;;5.28;;
60016;SDS011;45869;52.698;6.210;2022-10-12T03:24:21;10.25;;;5.13;;
60016;SDS011;45869;52.698;6.210;2022-10-12T03:26:47;8.73;;;5.15;;
60016;SDS011;45869;52.698;6.210;2022-10-12T03:29:13;12.02;;;6.03;;
60016;SDS011;45869;52.698;6.210;2022-10-12T03:31:39;10.80;;;5.25;;
60016;SDS011;45869;52.698;6.210;2022-10-12T03:34:05;11.75;;;4.22;;
60016;SDS011;45869;52.698;6.210;2022-10-12T03:36:31;8.95;;;4.78;;
60016;SDS011;45869;52.698;6.210;2022-10-12T03:38:57;9.48;;;5.05;;
60016;SDS011;45869;52.698;6.210;2022-10-12T03:41:23;8.20;;;5.22;;
60016;SDS011;45869;52.698;6.210;2022-10-12T03:43:49;10.02;;;6.07;;
60016;SDS011;45869;52.698;6.210;2022-10-12T03:46:15;10.18;;;5.82;;
60016;SDS011;45869;52.698;6.210;2022-10-12T03:48:41;10.32;;;5.07;;
60016;SDS011;45869;52.698;6.210;2022-10-12T03:51:07;10.60;;;5.45;;
60016;SDS011;45869;52.698;6.210;2022-10-12T03:53:33;10.43;;;5.65;;
60016;SDS011;45869;52.698;6.210;2022-10-12T03:55:59;8.48;;;5.15;;
60016;SDS011;45869;52.698;6.210;2022-10-12T03:58:25;9.45;;;5.15;;
60016;SDS011;45869;52.698;6.210;2022-10-12T04:00:54;10.63;;;5.05;;
60016;SDS011;45869;52.698;6.210;2022-10-12T04:03:20;8.07;;;4.80;;
60016;SDS011;45869;52.698;6.210;2022-10-12T04:05:52;11.23;;;5.50;;
60016;SDS011;45869;52.698;6.210;2022-10-12T04:08:19;11.03;;;5.80;;
60016;SDS011;45869;52.698;6.210;2022-10-12T04:10:45;9.65;;;4.88;;
60016;SDS011;45869;52.698;6.210;2022-10-12T04:13:14;8.75;;;4.13;;
60016;SDS011;45869;52.698;6.210;2022-10-12T04:15:40;9.73;;;5.03;;
60016;SDS011;45869;52.698;6.210;2022-10-12T04:18:06;12.55;;;5.18;;
60016;SDS011;45869;52.698;6.210;2022-10-12T04:20:32;12.55;;;5.63;;
60016;SDS011;45869;52.698;6.210;2022-10-12T04:22:58;8.65;;;4.63;;
60016;SDS011;45869;52.698;6.210;2022-10-12T04:25:24;11.73;;;5.30;;
60016;SDS011;45869;52.698;6.210;2022-10-12T04:27:50;10.30;;;5.05;;
60016;SDS011;45869;52.698;6.210;2022-10-12T04:30:16;8.55;;;4.60;;
60016;SDS011;45869;52.698;6.210;2022-10-12T04:32:42;8.85;;;4.82;;
60016;SDS011;45869;52.698;6.210;2022-10-12T04:35:09;9.77;;;5.43;;
60016;SDS011;45869;52.698;6.210;2022-10-12T04:37:35;14.77;;;5.15;;
60016;SDS011;45869;52.698;6.210;2022-10-12T04:40:01;11.07;;;4.90;;
60016;SDS011;45869;52.698;6.210;2022-10-12T04:42:27;9.70;;;5.10;;
60016;SDS011;45869;52.698;6.210;2022-10-12T04:44:53;8.88;;;4.20;;
60016;SDS011;45869;52.698;6.210;2022-10-12T04:47:19;9.85;;;5.20;;
60016;SDS011;45869;52.698;6.210;2022-10-12T04:49:45;9.65;;;5.00;;
60016;SDS011;45869;52.698;6.210;2022-10-12T04:52:11;10.38;;;4.90;;
60016;SDS011;45869;52.698;6.210;2022-10-12T04:54:40;8.88;;;5.00;;
60016;SDS011;45869;52.698;6.210;2022-10-12T04:57:06;10.98;;;4.63;;
60016;SDS011;45869;52.698;6.210;2022-10-12T04:59:32;7.45;;;5.03;;
60016;SDS011;45869;52.698;6.210;2022-10-12T05:01:58;7.90;;;4.40;;
60016;SDS011;45869;52.698;6.210;2022-10-12T05:04:24;8.48;;;4.70;;
60016;SDS011;45869;52.698;6.210;2022-10-12T05:06:50;8.82;;;5.20;;
60016;SDS011;45869;52.698;6.210;2022-10-12T05:09:16;7.82;;;4.97;;
60016;SDS011;45869;52.698;6.210;2022-10-12T05:11:42;11.07;;;4.60;;
60016;SDS011;45869;52.698;6.210;2022-10-12T05:14:08;8.45;;;4.85;;
60016;SDS011;45869;52.698;6.210;2022-10-12T05:16:34;7.25;;;4.75;;
60016;SDS011;45869;52.698;6.210;2022-10-12T05:19:00;10.50;;;5.40;;
60016;SDS011;45869;52.698;6.210;2022-10-12T05:21:26;11.35;;;4.95;;
60016;SDS011;45869;52.698;6.210;2022-10-12T05:23:52;9.10;;;4.88;;
60016;SDS011;45869;52.698;6.210;2022-10-12T05:26:18;7.47;;;4.50;;
60016;SDS011;45869;52.698;6.210;2022-10-12T05:28:44;8.35;;;4.82;;
60016;SDS011;45869;52.698;6.210;2022-10-12T05:31:10;8.05;;;5.32;;
60016;SDS011;45869;52.698;6.210;2022-10-12T05:33:36;9.02;;;4.68;;
60016;SDS011;45869;52.698;6.210;2022-10-12T05:36:05;8.18;;;4.78;;
60016;SDS011;45869;52.698;6.210;2022-10-12T05:38:31;9.57;;;5.40;;
60016;SDS011;45869;52.698;6.210;2022-10-12T05:40:57;8.52;;;5.25;;
60016;SDS011;45869;52.698;6.210;2022-10-12T05:43:23;9.18;;;5.13;;
60016;SDS011;45869;52.698;6.210;2022-10-12T05:45:49;10.80;;;5.25;;
60016;SDS011;45869;52.698;6.210;2022-10-12T05:48:18;12.07;;;5.25;;
60016;SDS011;45869;52.698;6.210;2022-10-12T05:50:44;9.98;;;5.70;;
60016;SDS011;45869;52.698;6.210;2022-10-12T05:53:10;10.93;;;5.50;;
60016;SDS011;45869;52.698;6.210;2022-10-12T05:55:36;10.95;;;5.70;;
60016;SDS011;45869;52.698;6.210;2022-10-12T05:58:02;9.77;;;5.50;;
60016;SDS011;45869;52.698;6.210;2022-10-12T06:00:28;11.05;;;5.78;;
60016;SDS011;45869;52.698;6.210;2022-10-12T06:02:54;10.88;;;5.70;;
60016;SDS011;45869;52.698;6.210;2022-10-12T06:05:20;10.20;;;5.45;;
60016;SDS011;45869;52.698;6.210;2022-10-12T06:07:48;9.70;;;5.72;;
60016;SDS011;45869;52.698;6.210;2022-10-12T06:10:14;10.77;;;5.88;;
60016;SDS011;45869;52.698;6.210;2022-10-12T06:12:40;10.00;;;5.40;;
60016;SDS011;45869;52.698;6.210;2022-10-12T06:15:07;9.52;;;5.30;;
60016;SDS011;45869;52.698;6.210;2022-10-12T06:17:33;8.88;;;5.25;;
60016;SDS011;45869;52.698;6.210;2022-10-12T06:19:59;16.02;;;4.70;;
60016;SDS011;45869;52.698;6.210;2022-10-12T06:22:25;11.38;;;5.82;;
60016;SDS011;45869;52.698;6.210;2022-10-12T06:24:51;8.10;;;5.65;;
60016;SDS011;45869;52.698;6.210;2022-10-12T06:27:17;10.07;;;5.78;;
60016;SDS011;45869;52.698;6.210;2022-10-12T06:29:44;10.82;;;5.63;;
60016;SDS011;45869;52.698;6.210;2022-10-12T06:32:10;11.45;;;6.10;;
60016;SDS011;45869;52.698;6.210;2022-10-12T06:34:36;9.85;;;6.15;;
60016;SDS011;45869;52.698;6.210;2022-10-12T06:37:02;10.50;;;6.13;;
60016;SDS011;45869;52.698;6.210;2022-10-12T06:39:28;11.15;;;6.80;;
60016;SDS011;45869;52.698;6.210;2022-10-12T06:41:54;14.68;;;7.40;;
60016;SDS011;45869;52.698;6.210;2022-10-12T06:44:23;9.68;;;6.32;;
60016;SDS011;45869;52.698;6.210;2022-10-12T06:46:49;12.25;;;6.85;;
60016;SDS011;45869;52.698;6.210;2022-10-12T06:49:15;13.73;;;8.18;;
60016;SDS011;45869;52.698;6.210;2022-10-12T06:51:44;16.13;;;9.82;;
60016;SDS011;45869;52.698;6.210;2022-10-12T06:54:10;19.25;;;10.98;;
60016;SDS011;45869;52.698;6.210;2022-10-12T06:56:36;17.50;;;11.10;;
60016;SDS011;45869;52.698;6.210;2022-10-12T06:59:03;19.20;;;9.15;;
60016;SDS011;45869;52.698;6.210;2022-10-12T07:01:29;18.95;;;12.13;;
60016;SDS011;45869;52.698;6.210;2022-10-12T07:03:55;17.40;;;11.48;;
60016;SDS011;45869;52.698;6.210;2022-10-12T07:06:21;19.35;;;12.27;;
60016;SDS011;45869;52.698;6.210;2022-10-12T07:08:47;23.77;;;13.10;;
60016;SDS011;45869;52.698;6.210;2022-10-12T07:11:14;17.52;;;11.75;;
60016;SDS011;45869;52.698;6.210;2022-10-12T07:13:40;20.95;;;12.70;;
60016;SDS011;45869;52.698;6.210;2022-10-12T07:16:06;19.52;;;11.73;;
60016;SDS011;45869;52.698;6.210;2022-10-12T07:18:33;21.48;;;11.88;;
60016;SDS011;45869;52.698;6.210;2022-10-12T07:20:59;20.15;;;11.52;;
60016;SDS011;45869;52.698;6.210;2022-10-12T07:23:26;21.52;;;12.02;;
60016;SDS011;45869;52.698;6.210;2022-10-12T07:25:53;18.63;;;11.90;;
60016;SDS011;45869;52.698;6.210;2022-10-12T07:28:19;19.35;;;11.73;;
60016;SDS011;45869;52.698;6.210;2022-10-12T07:30:45;21.33;;;8.43;;
60016;SDS011;45869;52.698;6.210;2022-10-12T07:33:12;15.60;;;9.93;;
60016;SDS011;45869;52.698;6.210;2022-10-12T07:35:38;14.95;;;9.45;;
60016;SDS011;45869;52.698;6.210;2022-10-12T07:38:04;18.23;;;9.73;;
60016;SDS011;45869;52.698;6.210;2022-10-12T07:40:30;14.57;;;9.30;;
60016;SDS011;45869;52.698;6.210;2022-10-12T07:42:56;14.52;;;8.00;;
60016;SDS011;45869;52.698;6.210;2022-10-12T07:45:23;20.95;;;11.30;;
60016;SDS011;45869;52.698;6.210;2022-10-12T07:47:49;14.20;;;9.35;;
60016;SDS011;45869;52.698;6.210;2022-10-12T07:50:15;16.90;;;10.18;;
60016;SDS011;45869;52.698;6.210;2022-10-12T07:52:41;18.40;;;10.00;;
60016;SDS011;45869;52.698;6.210;2022-10-12T07:55:07;17.65;;;10.25;;
60016;SDS011;45869;52.698;6.210;2022-10-12T07:57:33;16.38;;;10.77;;
60016;SDS011;45869;52.698;6.210;2022-10-12T07:59:59;15.80;;;10.00;;
60016;SDS011;45869;52.698;6.210;2022-10-12T08:02:25;17.17;;;10.65;;
60016;SDS011;45869;52.698;6.210;2022-10-12T08:04:54;15.68;;;9.82;;
60016;SDS011;45869;52.698;6.210;2022-10-12T08:07:20;19.40;;;11.27;;
60016;SDS011;45869;52.698;6.210;2022-10-12T08:09:46;14.43;;;10.18;;
60016;SDS011;45869;52.698;6.210;2022-10-12T08:12:13;16.92;;;10.15;;
60016;SDS011;45869;52.698;6.210;2022-10-12T08:14:39;16.75;;;10.77;;
60016;SDS011;45869;52.698;6.210;2022-10-12T08:17:05;17.80;;;10.55;;
60016;SDS011;45869;52.698;6.210;2022-10-12T08:19:34;18.00;;;9.95;;
60016;SDS011;45869;52.698;6.210;2022-10-12T08:22:00;16.17;;;10.40;;
60016;SDS011;45869;52.698;6.210;2022-10-12T08:24:26;15.38;;;9.90;;
60016;SDS011;45869;52.698;6.210;2022-10-12T08:26:52;22.10;;;10.40;;
60016;SDS011;45869;52.698;6.210;2022-10-12T08:29:18;16.50;;;9.60;;
60016;SDS011;45869;52.698;6.210;2022-10-12T08:31:47;16.98;;;8.75;;
60016;SDS011;45869;52.698;6.210;2022-10-12T08:34:15;14.63;;;8.20;;
60016;SDS011;45869;52.698;6.210;2022-10-12T08:36:41;16.13;;;7.68;;
60016;SDS011;45869;52.698;6.210;2022-10-12T08:39:07;13.23;;;6.93;;
60016;SDS011;45869;52.698;6.210;2022-10-12T08:41:45;13.98;;;7.60;;
60016;SDS011;45869;52.698;6.210;2022-10-12T08:47:13;13.07;;;6.80;;
60016;SDS011;45869;52.698;6.210;2022-10-12T08:49:46;13.35;;;6.65;;
60016;SDS011;45869;52.698;6.210;2022-10-12T08:54:45;12.25;;;6.00;;
60016;SDS011;45869;52.698;6.210;2022-10-12T08:57:15;12.20;;;6.50;;
60016;SDS011;45869;52.698;6.210;2022-10-12T08:59:41;13.95;;;5.72;;
60016;SDS011;45869;52.698;6.210;2022-10-12T09:04:59;13.95;;;5.38;;
60016;SDS011;45869;52.698;6.210;2022-10-12T09:07:27;10.07;;;5.30;;
60016;SDS011;45869;52.698;6.210;2022-10-12T09:15:16;9.95;;;4.68;;
60016;SDS011;45869;52.698;6.210;2022-10-12T09:17:53;13.48;;;4.57;;
60016;SDS011;45869;52.698;6.210;2022-10-12T09:20:27;9.90;;;4.65;;
60016;SDS011;45869;52.698;6.210;2022-10-12T09:22:56;11.45;;;4.90;;
60016;SDS011;45869;52.698;6.210;2022-10-12T09:25:25;10.00;;;4.72;;
60016;SDS011;45869;52.698;6.210;2022-10-12T09:27:51;10.43;;;5.35;;
60016;SDS011;45869;52.698;6.210;2022-10-12T09:30:18;11.07;;;5.20;;
60016;SDS011;45869;52.698;6.210;2022-10-12T09:35:13;8.13;;;4.47;;
60016;SDS011;45869;52.698;6.210;2022-10-12T09:37:39;10.95;;;4.60;;
60016;SDS011;45869;52.698;6.210;2022-10-12T09:40:06;10.15;;;4.63;;
60016;SDS011;45869;52.698;6.210;2022-10-12T09:42:39;11.07;;;4.97;;
60016;SDS011;45869;52.698;6.210;2022-10-12T09:45:12;8.88;;;4.20;;
60016;SDS011;45869;52.698;6.210;2022-10-12T09:47:39;13.65;;;4.85;;
60016;SDS011;45869;52.698;6.210;2022-10-12T09:50:05;8.55;;;3.88;;
60016;SDS011;45869;52.698;6.210;2022-10-12T09:57:37;10.20;;;4.10;;
60016;SDS011;45869;52.698;6.210;2022-10-12T10:00:26;8.63;;;4.13;;
60016;SDS011;45869;52.698;6.210;2022-10-12T10:02:53;9.43;;;4.20;;
60016;SDS011;45869;52.698;6.210;2022-10-12T10:05:30;10.75;;;4.28;;
60016;SDS011;45869;52.698;6.210;2022-10-12T10:13:16;8.27;;;3.78;;
60016;SDS011;45869;52.698;6.210;2022-10-12T10:15:45;9.25;;;3.70;;
60016;SDS011;45869;52.698;6.210;2022-10-12T10:18:25;11.27;;;3.78;;
60016;SDS011;45869;52.698;6.210;2022-10-12T10:20:53;10.80;;;3.45;;
60016;SDS011;45869;52.698;6.210;2022-10-12T10:23:22;12.23;;;3.78;;
60016;SDS011;45869;52.698;6.210;2022-10-12T10:28:22;9.82;;;3.67;;
60016;SDS011;45869;52.698;6.210;2022-10-12T10:30:54;8.90;;;3.28;;
60016;SDS011;45869;52.698;6.210;2022-10-12T10:33:40;9.05;;;3.60;;
60016;SDS011;45869;52.698;6.210;2022-10-12T10:36:25;11.10;;;3.72;;
60016;SDS011;45869;52.698;6.210;2022-10-12T10:39:24;10.93;;;3.63;;
60016;SDS011;45869;52.698;6.210;2022-10-12T10:42:10;12.32;;;4.07;;
60016;SDS011;45869;52.698;6.210;2022-10-12T10:44:56;10.15;;;3.17;;
60016;SDS011;45869;52.698;6.210;2022-10-12T10:47:45;9.23;;;3.20;;
60016;SDS011;45869;52.698;6.210;2022-10-12T10:52:56;9.45;;;3.22;;
60016;SDS011;45869;52.698;6.210;2022-10-12T10:55:26;8.23;;;3.53;;
60016;SDS011;45869;52.698;6.210;2022-10-12T10:58:03;8.43;;;3.38;;
60016;SDS011;45869;52.698;6.210;2022-10-12T11:00:33;13.50;;;3.83;;
60016;SDS011;45869;52.698;6.210;2022-10-12T11:03:04;9.73;;;3.77;;
60016;SDS011;45869;52.698;6.210;2022-10-12T11:05:32;11.05;;;3.75;;
60016;SDS011;45869;52.698;6.210;2022-10-12T11:08:00;9.10;;;3.90;;
60016;SDS011;45869;52.698;6.210;2022-10-12T11:10:29;9.73;;;3.33;;
60016;SDS011;45869;52.698;6.210;2022-10-12T11:16:37;9.20;;;3.30;;
60016;SDS011;45869;52.698;6.210;2022-10-12T11:18:38;9.13;;;3.33;;
60016;SDS011;45869;52.698;6.210;2022-10-12T11:21:29;9.23;;;3.78;;
60016;SDS011;45869;52.698;6.210;2022-10-12T11:26:33;8.60;;;3.33;;
60016;SDS011;45869;52.698;6.210;2022-10-12T11:29:00;8.75;;;3.30;;
60016;SDS011;45869;52.698;6.210;2022-10-12T11:31:35;9.02;;;3.28;;
60016;SDS011;45869;52.698;6.210;2022-10-12T11:34:03;10.07;;;3.38;;
60016;SDS011;45869;52.698;6.210;2022-10-12T11:36:31;6.82;;;2.63;;
60016;SDS011;45869;52.698;6.210;2022-10-12T11:39:02;7.45;;;2.90;;
60016;SDS011;45869;52.698;6.210;2022-10-12T11:41:36;8.05;;;2.65;;
60016;SDS011;45869;52.698;6.210;2022-10-12T11:44:19;8.15;;;2.83;;
60016;SDS011;45869;52.698;6.210;2022-10-12T11:46:55;8.80;;;3.30;;
60016;SDS011;45869;52.698;6.210;2022-10-12T11:49:24;8.98;;;3.00;;
60016;SDS011;45869;52.698;6.210;2022-10-12T11:51:51;7.82;;;3.53;;
60016;SDS011;45869;52.698;6.210;2022-10-12T11:54:27;8.43;;;3.20;;
60016;SDS011;45869;52.698;6.210;2022-10-12T11:56:56;9.07;;;3.40;;
60016;SDS011;45869;52.698;6.210;2022-10-12T11:59:25;10.05;;;3.65;;
60016;SDS011;45869;52.698;6.210;2022-10-12T12:04:27;9.13;;;3.35;;
60016;SDS011;45869;52.698;6.210;2022-10-12T12:06:55;9.32;;;3.65;;
60016;SDS011;45869;52.698;6.210;2022-10-12T12:14:45;14.40;;;4.05;;
60016;SDS011;45869;52.698;6.210;2022-10-12T12:19:39;13.57;;;4.15;;
60016;SDS011;45869;52.698;6.210;2022-10-12T12:24:59;8.32;;;4.00;;
60016;SDS011;45869;52.698;6.210;2022-10-12T12:29:55;9.25;;;4.00;;
60016;SDS011;45869;52.698;6.210;2022-10-12T12:32:23;10.32;;;4.05;;
60016;SDS011;45869;52.698;6.210;2022-10-12T12:34:56;9.68;;;4.55;;
60016;SDS011;45869;52.698;6.210;2022-10-12T12:37:25;13.65;;;4.72;;
60016;SDS011;45869;52.698;6.210;2022-10-12T12:39:57;9.32;;;4.68;;
60016;SDS011;45869;52.698;6.210;2022-10-12T12:42:24;10.85;;;4.55;;
60016;SDS011;45869;52.698;6.210;2022-10-12T12:44:51;9.80;;;4.18;;
60016;SDS011;45869;52.698;6.210;2022-10-12T12:47:19;15.00;;;4.82;;
60016;SDS011;45869;52.698;6.210;2022-10-12T12:49:52;13.57;;;5.10;;
60016;SDS011;45869;52.698;6.210;2022-10-12T12:52:20;11.40;;;5.00;;
60016;SDS011;45869;52.698;6.210;2022-10-12T12:54:56;10.75;;;4.72;;
60016;SDS011;45869;52.698;6.210;2022-10-12T13:15:48;11.93;;;4.72;;
60016;SDS011;45869;52.698;6.210;2022-10-12T13:20:45;11.27;;;4.53;;
60016;SDS011;45869;52.698;6.210;2022-10-12T13:23:15;14.13;;;5.00;;
60016;SDS011;45869;52.698;6.210;2022-10-12T13:25:43;8.63;;;4.05;;
60016;SDS011;45869;52.698;6.210;2022-10-12T13:28:15;10.55;;;4.07;;
60016;SDS011;45869;52.698;6.210;2022-10-12T13:30:54;11.18;;;4.35;;
60016;SDS011;45869;52.698;6.210;2022-10-12T13:38:19;9.77;;;4.80;;
60016;SDS011;45869;52.698;6.210;2022-10-12T13:44:17;10.43;;;4.75;;
60016;SDS011;45869;52.698;6.210;2022-10-12T13:46:46;11.18;;;5.18;;
60016;SDS011;45869;52.698;6.210;2022-10-12T13:49:29;8.27;;;4.63;;
60016;SDS011;45869;52.698;6.210;2022-10-12T13:55:23;10.75;;;4.85;;
60016;SDS011;45869;52.698;6.210;2022-10-12T13:57:49;12.85;;;5.43;;
60016;SDS011;45869;52.698;6.210;2022-10-12T14:00:22;13.75;;;5.45;;
60016;SDS011;45869;52.698;6.210;2022-10-12T14:05:23;12.10;;;5.38;;
60016;SDS011;45869;52.698;6.210;2022-10-12T14:07:50;13.68;;;5.13;;
60016;SDS011;45869;52.698;6.210;2022-10-12T14:10:21;13.27;;;5.68;;
60016;SDS011;45869;52.698;6.210;2022-10-12T14:12:49;11.73;;;5.10;;
60016;SDS011;45869;52.698;6.210;2022-10-12T14:15:16;12.77;;;5.60;;
60016;SDS011;45869;52.698;6.210;2022-10-12T14:17:44;10.73;;;5.45;;
60016;SDS011;45869;52.698;6.210;2022-10-12T14:20:26;13.70;;;5.60;;
60016;SDS011;45869;52.698;6.210;2022-10-12T14:22:52;11.45;;;5.40;;
60016;SDS011;45869;52.698;6.210;2022-10-12T14:25:22;11.07;;;5.07;;
60016;SDS011;45869;52.698;6.210;2022-10-12T14:27:55;10.57;;;4.57;;
60016;SDS011;45869;52.698;6.210;2022-10-12T14:30:22;12.48;;;4.90;;
60016;SDS011;45869;52.698;6.210;2022-10-12T14:32:52;10.15;;;4.72;;
60016;SDS011;45869;52.698;6.210;2022-10-12T14:35:20;11.55;;;4.85;;
60016;SDS011;45869;52.698;6.210;2022-10-12T14:37:47;12.05;;;4.82;;
60016;SDS011;45869;52.698;6.210;2022-10-12T14:40:24;14.20;;;4.85;;
60016;SDS011;45869;52.698;6.210;2022-10-12T14:43:00;16.73;;;4.30;;
60016;SDS011;45869;52.698;6.210;2022-10-12T14:45:31;16.73;;;4.35;;
60016;SDS011;45869;52.698;6.210;2022-10-12T14:47:58;13.32;;;3.75;;
60016;SDS011;45869;52.698;6.210;2022-10-12T14:50:25;9.13;;;3.10;;
60016;SDS011;45869;52.698;6.210;2022-10-12T14:52:52;10.48;;;3.78;;
60016;SDS011;45869;52.698;6.210;2022-10-12T14:55:23;9.20;;;3.00;;
60016;SDS011;45869;52.698;6.210;2022-10-12T14:57:50;7.65;;;3.25;;
60016;SDS011;45869;52.698;6.210;2022-10-12T15:00:17;8.35;;;3.58;;
60016;SDS011;45869;52.698;6.210;2022-10-12T15:02:44;7.70;;;3.17;;
60016;SDS011;45869;52.698;6.210;2022-10-12T15:05:10;12.48;;;3.72;;
60016;SDS011;45869;52.698;6.210;2022-10-12T15:07:37;11.68;;;3.90;;
60016;SDS011;45869;52.698;6.210;2022-10-12T15:10:03;10.98;;;4.47;;
60016;SDS011;45869;52.698;6.210;2022-10-12T15:12:29;9.25;;;4.18;;
60016;SDS011;45869;52.698;6.210;2022-10-12T15:14:55;10.57;;;4.72;;
60016;SDS011;45869;52.698;6.210;2022-10-12T15:17:23;8.90;;;4.70;;
60016;SDS011;45869;52.698;6.210;2022-10-12T15:19:49;13.77;;;4.97;;
60016;SDS011;45869;52.698;6.210;2022-10-12T15:22:17;13.77;;;4.93;;
60016;SDS011;45869;52.698;6.210;2022-10-12T15:24:43;10.93;;;5.05;;
60016;SDS011;45869;52.698;6.210;2022-10-12T15:27:09;12.73;;;4.82;;
60016;SDS011;45869;52.698;6.210;2022-10-12T15:29:38;10.70;;;4.25;;
60016;SDS011;45869;52.698;6.210;2022-10-12T15:32:05;13.32;;;4.95;;
60016;SDS011;45869;52.698;6.210;2022-10-12T15:34:31;13.35;;;5.15;;
60016;SDS011;45869;52.698;6.210;2022-10-12T15:37:00;10.45;;;4.72;;
60016;SDS011;45869;52.698;6.210;2022-10-12T15:39:26;8.60;;;4.20;;
60016;SDS011;45869;52.698;6.210;2022-10-12T15:41:52;9.90;;;4.80;;
60016;SDS011;45869;52.698;6.210;2022-10-12T15:44:18;9.63;;;4.60;;
60016;SDS011;45869;52.698;6.210;2022-10-12T15:46:44;10.65;;;4.80;;
60016;SDS011;45869;52.698;6.210;2022-10-12T15:49:14;11.27;;;4.55;;
60016;SDS011;45869;52.698;6.210;2022-10-12T15:51:40;12.70;;;4.93;;
60016;SDS011;45869;52.698;6.210;2022-10-12T15:54:09;11.38;;;5.45;;
60016;SDS011;45869;52.698;6.210;2022-10-12T15:56:38;12.27;;;5.47;;
60016;SDS011;45869;52.698;6.210;2022-10-12T15:59:04;9.25;;;4.97;;
60016;SDS011;45869;52.698;6.210;2022-10-12T16:01:33;13.27;;;6.47;;
60016;SDS011;45869;52.698;6.210;2022-10-12T16:04:01;15.82;;;6.45;;
60016;SDS011;45869;52.698;6.210;2022-10-12T16:06:27;11.57;;;5.60;;
60016;SDS011;45869;52.698;6.210;2022-10-12T16:08:53;12.32;;;6.07;;
60016;SDS011;45869;52.698;6.210;2022-10-12T16:11:19;11.45;;;5.43;;
60016;SDS011;45869;52.698;6.210;2022-10-12T16:13:45;11.85;;;5.25;;
60016;SDS011;45869;52.698;6.210;2022-10-12T16:16:13;14.65;;;5.50;;
60016;SDS011;45869;52.698;6.210;2022-10-12T16:18:43;12.25;;;5.53;;
60016;SDS011;45869;52.698;6.210;2022-10-12T16:21:09;14.73;;;6.13;;
60016;SDS011;45869;52.698;6.210;2022-10-12T16:23:36;12.50;;;6.03;;
60016;SDS011;45869;52.698;6.210;2022-10-12T16:26:07;12.85;;;6.38;;
60016;SDS011;45869;52.698;6.210;2022-10-12T16:28:34;13.45;;;5.38;;
60016;SDS011;45869;52.698;6.210;2022-10-12T16:31:00;12.90;;;6.03;;
60016;SDS011;45869;52.698;6.210;2022-10-12T16:33:26;10.52;;;5.50;;
60016;SDS011;45869;52.698;6.210;2022-10-12T16:35:52;11.85;;;6.20;;
60016;SDS011;45869;52.698;6.210;2022-10-12T16:38:18;11.32;;;6.10;;